createdAt,value
2022-08-25T00:00:34.401Z,99839.56
2022-08-25T00:04:36.315Z,99833.94
2022-08-25T00:08:39.114Z,99839.06
2022-08-25T00:12:40.592Z,99844.03
2022-08-25T00:16:43.456Z,99839.06
2022-08-25T00:20:49.090Z,99839.75
2022-08-25T00:24:50.727Z,99838.78
2022-08-25T00:28:54.173Z,99831.34
2022-08-25T00:32:57.439Z,99839.94
2022-08-25T00:37:00.877Z,99841.44
2022-08-25T00:41:08.096Z,99829.88
2022-08-25T00:45:09.729Z,99830.06
2022-08-25T00:49:20.920Z,99829.91
2022-08-25T00:53:27.611Z,99829.25
2022-08-25T00:57:42.462Z,99838.22
2022-08-25T01:01:44.205Z,99831.78
2022-08-25T01:05:46.633Z,99832.28
2022-08-25T01:09:49.907Z,99834.25
2022-08-25T01:13:52.979Z,99829.94
2022-08-25T01:17:55.883Z,99834.75
2022-08-25T01:21:57.442Z,99838.72
2022-08-25T01:26:02.346Z,99829.47
2022-08-25T01:30:04.730Z,99841.69
2022-08-25T01:34:07.677Z,99835.25
2022-08-25T01:38:09.430Z,99837.06
2022-08-25T01:42:24.527Z,99840.72
2022-08-25T01:46:26.265Z,99841.38
2022-08-25T01:50:27.982Z,99848.63
2022-08-25T01:54:29.467Z,99845.97
2022-08-25T01:58:35.987Z,99850.97
2022-08-25T02:02:37.484Z,99849.28
2022-08-25T02:06:44.166Z,99853.06
2022-08-25T02:10:46.508Z,99862.44
2022-08-25T02:14:48.821Z,99856.13
2022-08-25T02:18:50.549Z,99856.91
2022-08-25T02:22:56.723Z,99865.09
2022-08-25T02:26:58.882Z,99854.97
2022-08-25T02:31:01.737Z,99875.41
2022-08-25T02:35:03.564Z,99865.50
2022-08-25T02:39:06.551Z,99861.16
2022-08-25T02:43:08.084Z,99855.69
2022-08-25T02:47:09.669Z,99851.38
2022-08-25T02:51:11.821Z,99868.31
2022-08-25T02:55:14.371Z,99857.72
2022-08-25T02:59:17.955Z,99856.72
2022-08-25T03:03:20.497Z,99856.53
2022-08-25T03:07:22.113Z,99850.72
2022-08-25T03:11:26.540Z,99858.13
2022-08-25T03:15:28.075Z,99847.84
2022-08-25T03:19:32.299Z,99847.69
2022-08-25T03:23:33.978Z,99843.53
2022-08-25T03:27:35.474Z,99844.19
2022-08-25T03:31:37.343Z,99847.63
2022-08-25T03:35:38.844Z,99843.81
2022-08-25T03:39:40.411Z,99834.06
2022-08-25T03:43:41.974Z,99851.81
2022-08-25T03:47:45.766Z,99847.19
2022-08-25T03:51:48.119Z,99856.34
2022-08-25T03:55:49.619Z,99860.41
2022-08-25T03:59:51.755Z,99857.22
2022-08-25T04:03:53.344Z,99852.56
2022-08-25T04:07:57.642Z,99838.44
2022-08-25T04:11:59.131Z,99828.22
2022-08-25T04:16:00.584Z,99831.94
2022-08-25T04:20:02.443Z,99830.59
2022-08-25T04:24:04.183Z,99833.09
2022-08-25T04:28:05.936Z,99829.66
2022-08-25T04:32:08.210Z,99823.75
2022-08-25T04:36:13.954Z,99829.03
2022-08-25T04:40:16.291Z,99828.97
2022-08-25T04:44:18.606Z,99828.00
2022-08-25T04:48:20.140Z,99846.13
2022-08-25T04:52:22.310Z,99849.31
2022-08-25T04:56:26.859Z,99847.84
2022-08-25T05:00:28.751Z,99849.84
2022-08-25T05:04:30.550Z,99841.44
2022-08-25T05:08:32.703Z,99840.63
2022-08-25T05:12:34.426Z,99842.44
2022-08-25T05:16:37.310Z,99828.31
2022-08-25T05:20:39.010Z,99825.41
2022-08-25T05:24:41.072Z,99825.94
2022-08-25T05:28:42.821Z,99832.53
2022-08-25T05:32:45.006Z,99825.78
2022-08-25T05:36:46.962Z,99813.31
2022-08-25T05:40:51.619Z,99812.03
2022-08-25T05:44:53.118Z,99820.47
2022-08-25T05:48:54.989Z,99808.84
2022-08-25T05:52:56.584Z,99808.91
2022-08-25T05:56:58.536Z,99807.09
2022-08-25T06:01:23.700Z,99809.47
2022-08-25T06:05:25.549Z,99812.00
2022-08-25T06:09:27.104Z,99801.00
2022-08-25T06:13:29.036Z,99807.94
2022-08-25T06:17:31.826Z,99806.03
2022-08-25T06:21:33.436Z,99815.78
2022-08-25T06:25:36.190Z,99809.72
2022-08-25T06:29:37.981Z,99798.22
2022-08-25T06:33:39.579Z,99810.44
2022-08-25T06:37:42.612Z,99810.31
2022-08-25T06:41:44.293Z,99811.94
2022-08-25T06:45:45.979Z,99815.75
2022-08-25T06:49:47.546Z,99798.56
2022-08-25T06:53:49.507Z,99793.44
2022-08-25T06:57:55.180Z,99800.19
2022-08-25T07:01:56.811Z,99796.00
2022-08-25T07:05:58.405Z,99801.34
2022-08-25T07:09:59.886Z,99796.88
2022-08-25T07:14:02.589Z,99796.91
2022-08-25T07:18:04.831Z,99787.34
2022-08-25T07:22:07.797Z,99791.16
2022-08-25T07:26:36.412Z,99782.72
2022-08-25T07:30:37.882Z,99783.38
2022-08-25T07:34:57.974Z,99781.94
2022-08-25T07:38:59.936Z,99784.63
2022-08-25T07:43:04.066Z,99785.22
2022-08-25T07:47:07.138Z,99792.88
2022-08-25T07:51:09.813Z,99791.03
2022-08-25T07:55:17.805Z,99786.91
2022-08-25T07:59:21.789Z,99789.19
2022-08-25T08:03:44.681Z,99787.50
2022-08-25T08:07:46.275Z,99794.69
2022-08-25T08:11:53.501Z,99790.13
2022-08-25T08:15:56.138Z,99786.69
2022-08-25T08:19:58.158Z,99791.94
2022-08-25T08:24:00.597Z,99787.53
2022-08-25T08:28:02.449Z,99799.34
2022-08-25T08:32:05.373Z,99792.03
2022-08-25T08:36:08.967Z,99790.34
2022-08-25T08:40:12.845Z,99781.19
2022-08-25T08:44:26.233Z,99778.69
2022-08-25T08:48:54.331Z,99779.44
2022-08-25T08:53:15.039Z,99791.78
2022-08-25T08:57:19.804Z,99779.09
2022-08-25T09:01:30.387Z,99772.19
2022-08-25T09:05:41.814Z,99777.16
2022-08-25T09:09:45.643Z,99766.03
2022-08-25T09:13:51.804Z,99779.19
2022-08-25T09:17:54.679Z,99779.16
2022-08-25T09:22:35.787Z,99774.13
2022-08-25T09:26:51.027Z,99766.78
2022-08-25T09:31:11.623Z,99758.22
2022-08-25T09:35:21.503Z,99765.94
2022-08-25T09:39:23.425Z,99750.94
2022-08-25T09:43:33.268Z,99754.53
2022-08-25T09:47:42.182Z,99744.88
2022-08-25T09:51:44.307Z,99732.22
2022-08-25T09:55:47.504Z,99725.78
2022-08-25T09:59:53.767Z,99722.94
2022-08-25T10:04:01.130Z,99717.34
2022-08-25T10:08:10.207Z,99719.72
2022-08-25T10:12:30.276Z,99705.88
2022-08-25T10:16:36.022Z,99707.06
2022-08-25T10:20:38.032Z,99696.00
2022-08-25T10:24:46.525Z,99694.88
2022-08-25T10:28:53.143Z,99682.13
2022-08-25T10:33:14.698Z,99674.53
2022-08-25T10:37:25.266Z,99677.03
2022-08-25T10:41:33.008Z,99669.25
2022-08-25T10:45:47.890Z,99654.66
2022-08-25T10:49:59.284Z,99653.66
2022-08-25T10:54:06.190Z,99665.19
2022-08-25T10:58:14.678Z,99656.31
2022-08-25T11:02:16.830Z,99654.88
2022-08-25T11:06:26.502Z,99647.66
2022-08-25T11:10:37.819Z,99646.91
2022-08-25T11:14:49.844Z,99628.47
2022-08-25T11:18:57.508Z,99616.69
2022-08-25T11:23:08.072Z,99638.44
2022-08-25T11:27:13.821Z,99630.75
2022-08-25T11:31:17.400Z,99619.75
2022-08-25T11:35:25.890Z,99624.22
2022-08-25T11:39:45.622Z,99623.41
2022-08-25T11:43:47.182Z,99612.69
2022-08-25T11:47:59.073Z,99604.28
2022-08-25T11:52:03.063Z,99611.66
2022-08-25T11:56:10.544Z,99603.16
2022-08-25T12:00:30.589Z,99595.06
2022-08-25T12:04:44.821Z,99599.16
2022-08-25T12:08:57.790Z,99599.50
2022-08-25T12:12:59.408Z,99600.97
2022-08-25T12:17:12.017Z,99590.56
2022-08-25T12:21:15.118Z,99587.59
2022-08-25T12:25:23.230Z,99582.63
2022-08-25T12:29:30.562Z,99572.66
2022-08-25T12:33:50.601Z,99574.03
2022-08-25T12:38:01.336Z,99574.63
2022-08-25T12:42:23.351Z,99567.88
2022-08-25T12:46:32.372Z,99560.94
2022-08-25T12:50:41.683Z,99568.34
2022-08-25T12:54:54.665Z,99556.78
2022-08-25T12:59:02.209Z,99557.97
2022-08-25T13:03:15.753Z,99556.50
2022-08-25T13:07:35.863Z,99555.25
2022-08-25T13:11:43.246Z,99552.19
2022-08-25T13:15:48.786Z,99540.59
2022-08-25T13:20:15.708Z,99534.81
2022-08-25T13:24:32.399Z,99539.75
2022-08-25T13:28:50.367Z,99540.13
2022-08-25T13:32:52.154Z,99521.94
2022-08-25T13:37:12.360Z,99520.56
2022-08-25T13:41:19.384Z,99516.34
2022-08-25T13:45:25.691Z,99512.44
2022-08-25T13:49:28.441Z,99513.94
2022-08-25T13:53:30.647Z,99509.25
2022-08-25T13:57:34.567Z,99505.13
2022-08-25T14:01:49.231Z,99503.03
2022-08-25T14:06:03.523Z,99500.38
2022-08-25T14:10:08.103Z,99486.34
2022-08-25T14:14:12.558Z,99489.88
2022-08-25T14:18:30.766Z,99494.66
2022-08-25T14:22:35.394Z,99489.59
2022-08-25T14:26:37.962Z,99483.53
2022-08-25T14:30:57.872Z,99484.75
2022-08-25T14:35:01.798Z,99480.25
2022-08-25T14:39:12.827Z,99471.75
2022-08-25T14:43:15.509Z,99464.28
2022-08-25T14:47:17.398Z,99449.38
2022-08-25T14:51:19.764Z,99450.53
2022-08-25T14:55:31.855Z,99449.09
2022-08-25T14:59:34.304Z,99444.97
2022-08-25T15:03:39.834Z,99436.94
2022-08-25T15:07:59.774Z,99435.78
2022-08-25T15:12:01.307Z,99430.25
2022-08-25T15:16:03.046Z,99434.22
2022-08-25T15:20:06.293Z,99428.16
2022-08-25T15:24:09.423Z,99433.22
2022-08-25T15:28:11.773Z,99433.38
2022-08-25T15:32:19.441Z,99429.75
2022-08-25T15:36:24.609Z,99436.69
2022-08-25T15:40:26.824Z,99431.78
2022-08-25T15:44:29.675Z,99425.25
2022-08-25T15:48:32.119Z,99426.06
2022-08-25T15:52:44.577Z,99419.13
2022-08-25T15:56:49.002Z,99413.38
2022-08-25T16:00:51.887Z,99421.16
2022-08-25T16:04:58.253Z,99412.25
2022-08-25T16:09:00.352Z,99411.03
2022-08-25T16:13:02.242Z,99406.56
2022-08-25T16:17:05.342Z,99412.22
2022-08-25T16:21:12.695Z,99413.88
2022-08-25T16:25:14.477Z,99401.63
2022-08-25T16:29:17.332Z,99402.88
2022-08-25T16:33:19.875Z,99397.56
2022-08-25T16:37:23.123Z,99401.22
2022-08-25T16:41:27.350Z,99399.56
2022-08-25T16:45:29.109Z,99395.81
2022-08-25T16:49:32.364Z,99392.16
2022-08-25T16:53:52.680Z,99394.53
2022-08-25T16:57:56.008Z,99395.75
2022-08-25T17:01:57.642Z,99393.22
2022-08-25T17:05:59.675Z,99389.53
2022-08-25T17:10:01.602Z,99395.59
2022-08-25T17:14:10.885Z,99391.50
2022-08-25T17:18:13.763Z,99402.09
2022-08-25T17:22:15.910Z,99398.06
2022-08-25T17:26:27.520Z,99402.09
2022-08-25T17:30:30.632Z,99393.44
2022-08-25T17:34:32.584Z,99401.50
2022-08-25T17:38:34.560Z,99396.50
2022-08-25T17:42:36.076Z,99391.94
2022-08-25T17:46:41.775Z,99399.59
2022-08-25T17:50:49.000Z,99402.63
2022-08-25T17:54:52.657Z,99405.28
2022-08-25T17:58:55.408Z,99397.28
2022-08-25T18:02:57.511Z,99405.50
2022-08-25T18:06:59.023Z,99411.22
2022-08-25T18:11:01.609Z,99412.84
2022-08-25T18:15:04.626Z,99410.78
2022-08-25T18:19:09.484Z,99412.44
2022-08-25T18:23:12.677Z,99410.75
2022-08-25T18:27:14.198Z,99415.63
2022-08-25T18:31:15.870Z,99424.47
2022-08-25T18:35:21.819Z,99417.19
2022-08-25T18:39:46.991Z,99420.47
2022-08-25T18:43:48.501Z,99414.91
2022-08-25T18:47:53.447Z,99421.88
2022-08-25T18:51:54.979Z,99412.69
2022-08-25T18:55:58.126Z,99419.66
2022-08-25T19:00:00.973Z,99419.06
2022-08-25T19:04:02.874Z,99418.44
2022-08-25T19:08:05.808Z,99426.78
2022-08-25T19:12:11.807Z,99417.22
2022-08-25T19:16:32.945Z,99423.06
2022-08-25T19:20:35.678Z,99424.50
2022-08-25T19:24:37.930Z,99427.97
2022-08-25T19:28:39.960Z,99428.22
2022-08-25T19:32:48.183Z,99427.69
2022-08-25T19:36:50.964Z,99419.84
2022-08-25T19:40:52.977Z,99422.59
2022-08-25T19:44:54.538Z,99422.84
2022-08-25T19:48:56.283Z,99424.41
2022-08-25T19:52:58.039Z,99423.97
2022-08-25T19:56:59.651Z,99434.78
2022-08-25T20:01:01.473Z,99423.84
2022-08-25T20:05:05.999Z,99428.59
2022-08-25T20:09:07.662Z,99429.31
2022-08-25T20:13:22.734Z,99433.22
2022-08-25T20:17:26.046Z,99431.50
2022-08-25T20:21:27.879Z,99449.97
2022-08-25T20:25:36.159Z,99435.38
2022-08-25T20:29:38.642Z,99444.25
2022-08-25T20:33:40.227Z,99444.56
2022-08-25T20:37:42.386Z,99437.28
2022-08-25T20:41:43.864Z,99441.28
2022-08-25T20:45:58.305Z,99438.00
2022-08-25T20:50:06.021Z,99444.94
2022-08-25T20:54:11.584Z,99433.84
2022-08-25T20:58:14.185Z,99435.59
2022-08-25T21:02:16.458Z,99436.75
2022-08-25T21:06:18.781Z,99427.47
2022-08-25T21:10:20.802Z,99428.22
2022-08-25T21:14:23.279Z,99440.09
2022-08-25T21:18:27.628Z,99430.25
2022-08-25T21:22:36.953Z,99432.16
2022-08-25T21:26:48.531Z,99435.59
2022-08-25T21:30:50.585Z,99427.75
2022-08-25T21:34:53.231Z,99430.38
2022-08-25T21:38:56.937Z,99424.16
2022-08-25T21:42:58.403Z,99431.59
2022-08-25T21:47:01.316Z,99427.38
2022-08-25T21:51:10.326Z,99428.00
2022-08-25T21:55:16.038Z,99430.97
2022-08-25T21:59:21.323Z,99430.72
2022-08-25T22:03:23.515Z,99425.56
2022-08-25T22:07:25.053Z,99425.38
2022-08-25T22:11:27.432Z,99431.22
2022-08-25T22:15:31.780Z,99429.84
2022-08-25T22:19:33.300Z,99427.63
2022-08-25T22:23:40.021Z,99433.13
2022-08-25T22:27:45.979Z,99433.13
2022-08-25T22:31:51.100Z,99424.66
2022-08-25T22:35:59.729Z,99421.03
2022-08-25T22:40:02.913Z,99422.69
2022-08-25T22:44:06.057Z,99415.06
2022-08-25T22:48:07.609Z,99415.88
2022-08-25T22:52:11.472Z,99415.41
2022-08-25T22:56:17.278Z,99414.09
2022-08-25T23:00:20.414Z,99416.81
2022-08-25T23:04:22.509Z,99420.00
2022-08-25T23:08:32.629Z,99423.06
2022-08-25T23:12:43.880Z,99413.69
2022-08-25T23:16:45.746Z,99407.78
2022-08-25T23:21:06.047Z,99408.03
2022-08-25T23:25:07.713Z,99405.53
2022-08-25T23:29:17.766Z,99405.88
2022-08-25T23:33:21.539Z,99403.19
2022-08-25T23:37:23.042Z,99399.56
2022-08-25T23:41:25.498Z,99401.53
2022-08-25T23:45:27.041Z,99397.09
2022-08-25T23:49:28.625Z,99391.34
2022-08-25T23:53:30.598Z,99388.06
2022-08-25T23:57:32.083Z,99388.75
